createdAt,value
2019-04-21T00:00:55.398Z,47.40
2019-04-21T00:03:32.810Z,47.50
2019-04-21T00:06:20.122Z,48.10
2019-04-21T00:09:04.292Z,48.10
2019-04-21T00:11:15.283Z,48.50
2019-04-21T00:13:42.571Z,48.20
2019-04-21T00:16:03.118Z,48.20
2019-04-21T00:18:47.930Z,48.10
2019-04-21T00:21:18.329Z,48.10
2019-04-21T00:23:56.175Z,48.40
2019-04-21T00:26:32.130Z,48.50
2019-04-21T00:29:09.419Z,48.90
2019-04-21T00:31:31.706Z,48.90
2019-04-21T00:33:48.196Z,48.70
2019-04-21T00:36:22.859Z,48.90
2019-04-21T00:39:20.725Z,49.20
2019-04-21T00:41:36.796Z,48.00
2019-04-21T00:44:04.570Z,48.50
2019-04-21T00:46:37.460Z,48.70
2019-04-21T00:49:06.070Z,48.70
2019-04-21T00:51:54.270Z,48.70
2019-04-21T00:54:25.712Z,48.70
2019-04-21T00:56:56.704Z,48.20
2019-04-21T00:59:26.558Z,47.20
2019-04-21T01:01:50.776Z,48.00
2019-04-21T01:04:23.443Z,48.20
2019-04-21T01:06:56.047Z,48.40
2019-04-21T01:09:25.951Z,47.80
2019-04-21T01:12:03.770Z,48.10
2019-04-21T01:14:35.909Z,48.20
2019-04-21T01:17:04.436Z,48.40
2019-04-21T01:19:33.197Z,48.80
2019-04-21T01:21:43.631Z,49.00
2019-04-21T01:24:19.754Z,48.50
2019-04-21T01:26:58.317Z,50.00
2019-04-21T01:29:37.480Z,50.00
2019-04-21T01:32:13.477Z,50.10
2019-04-21T01:34:39.246Z,51.20
2019-04-21T01:37:03.980Z,51.40
2019-04-21T01:42:08.972Z,51.80
2019-04-21T01:47:13.137Z,51.80
2019-04-21T01:49:36.953Z,52.30
2019-04-21T01:52:24.609Z,52.10
2019-04-21T01:54:55.904Z,52.50
2019-04-21T01:57:26.282Z,52.90
2019-04-21T01:59:51.223Z,53.00
2019-04-21T02:02:41.444Z,53.50
2019-04-21T02:05:11.281Z,53.10
2019-04-21T02:07:33.960Z,53.10
2019-04-21T02:10:11.182Z,53.50
2019-04-21T02:12:38.685Z,53.90
2019-04-21T02:15:14.289Z,54.00
2019-04-21T02:17:34.218Z,54.00
2019-04-21T02:20:02.721Z,54.50
2019-04-21T02:23:01.926Z,54.60
2019-04-21T02:25:16.583Z,55.00
2019-04-21T02:27:42.694Z,55.50
2019-04-21T02:30:29.566Z,55.70
2019-04-21T02:33:02.964Z,55.90
2019-04-21T02:40:35.835Z,55.80
2019-04-21T02:43:07.412Z,55.80
2019-04-21T02:45:30.221Z,55.90
2019-04-21T02:48:14.643Z,55.70
2019-04-21T02:53:16.412Z,56.40
2019-04-21T02:55:38.817Z,56.90
2019-04-21T02:58:20.813Z,57.10
2019-04-21T03:01:03.285Z,57.10
2019-04-21T03:03:37.944Z,57.70
2019-04-21T03:06:15.704Z,57.80
2019-04-21T03:08:50.366Z,57.90
2019-04-21T03:11:12.274Z,57.70
2019-04-21T03:19:01.958Z,58.40
2019-04-21T03:21:26.418Z,58.80
2019-04-21T03:24:08.087Z,59.40
2019-04-21T03:28:54.642Z,59.10
2019-04-21T03:36:56.911Z,60.40
2019-04-21T03:38:57.039Z,60.90
2019-04-21T03:46:42.167Z,61.70
2019-04-21T03:49:11.813Z,61.50
2019-04-21T03:51:37.647Z,60.50
2019-04-21T03:59:03.727Z,60.80
2019-04-21T04:02:06.040Z,62.20
2019-04-21T04:07:42.478Z,63.30
2019-04-21T04:10:08.049Z,63.50
2019-04-21T04:15:12.169Z,65.40
2019-04-21T04:17:44.222Z,65.50
2019-04-21T04:20:11.872Z,65.50
2019-04-21T04:22:49.654Z,66.20
2019-04-21T04:30:25.422Z,66.70
2019-04-21T04:35:21.538Z,65.00
2019-04-21T04:38:00.813Z,66.50
2019-04-21T04:43:09.010Z,66.50
2019-04-21T04:45:48.243Z,66.00
2019-04-21T04:48:05.527Z,66.60
2019-04-21T04:53:11.996Z,64.90
2019-04-21T04:55:43.027Z,65.90
2019-04-21T04:58:07.625Z,66.00
2019-04-21T05:03:13.535Z,66.50
2019-04-21T05:11:46.054Z,66.50
2019-04-21T05:16:36.348Z,66.70
2019-04-21T05:19:06.479Z,66.70
2019-04-21T05:23:48.109Z,67.70
2019-04-21T05:26:14.676Z,67.10
2019-04-21T05:28:44.578Z,67.40
2019-04-21T05:31:25.683Z,67.50
2019-04-21T05:34:00.118Z,68.20
2019-04-21T05:36:48.977Z,67.50
2019-04-21T05:39:18.444Z,67.90
2019-04-21T05:41:47.020Z,67.30
2019-04-21T05:44:37.957Z,67.90
2019-04-21T05:47:09.639Z,67.00
2019-04-21T05:49:45.529Z,67.10
2019-04-21T05:52:14.973Z,67.20
2019-04-21T05:57:14.765Z,68.40
2019-04-21T05:59:49.188Z,69.20
2019-04-21T06:02:24.321Z,70.00
2019-04-21T06:07:28.826Z,71.00
2019-04-21T06:10:00.906Z,71.50
2019-04-21T06:12:31.584Z,71.40
2019-04-21T06:15:02.400Z,73.60
2019-04-21T06:20:03.034Z,73.50
2019-04-21T06:22:33.075Z,73.70
2019-04-21T06:30:06.930Z,72.80
2019-04-21T06:32:46.767Z,72.10
2019-04-21T06:37:57.048Z,71.80
2019-04-21T06:40:41.196Z,70.10
2019-04-21T06:43:12.991Z,69.00
2019-04-21T06:45:36.669Z,70.30
2019-04-21T06:48:04.710Z,69.20
2019-04-21T06:50:39.874Z,69.30
2019-04-21T06:53:08.208Z,68.80
2019-04-21T06:55:34.717Z,68.00
2019-04-21T06:58:06.118Z,67.60
2019-04-21T07:00:35.859Z,65.90
2019-04-21T07:05:40.951Z,66.00
2019-04-21T07:10:46.304Z,64.00
2019-04-21T07:13:15.297Z,62.10
2019-04-21T07:15:43.506Z,61.40
2019-04-21T07:18:24.062Z,61.60
2019-04-21T07:20:50.495Z,61.60
2019-04-21T07:23:18.804Z,60.60
2019-04-21T07:25:53.460Z,59.90
2019-04-21T07:28:21.924Z,59.60
2019-04-21T07:30:59.370Z,59.60
2019-04-21T07:33:49.313Z,60.20
2019-04-21T07:35:53.986Z,59.80
2019-04-21T07:38:24.519Z,59.20
2019-04-21T07:40:45.545Z,60.00
2019-04-21T07:43:20.660Z,60.00
2019-04-21T07:45:49.812Z,60.00
2019-04-21T07:48:31.861Z,59.60
2019-04-21T07:51:12.509Z,59.10
2019-04-21T07:54:13.830Z,59.30
2019-04-21T07:56:09.253Z,59.40
2019-04-21T07:59:00.184Z,58.40
2019-04-21T08:04:03.888Z,57.00
2019-04-21T08:06:38.818Z,56.30
2019-04-21T08:09:00.964Z,55.70
2019-04-21T08:11:28.271Z,56.40
2019-04-21T08:14:03.526Z,55.00
2019-04-21T08:16:30.465Z,55.60
2019-04-21T08:19:09.757Z,54.70
2019-04-21T08:21:44.698Z,55.20
2019-04-21T08:24:13.190Z,53.70
2019-04-21T08:26:45.065Z,53.00
2019-04-21T08:29:21.488Z,53.50
2019-04-21T08:32:19.919Z,53.80
2019-04-21T08:34:21.607Z,53.10
2019-04-21T08:36:44.864Z,53.40
2019-04-21T08:39:24.048Z,52.60
2019-04-21T08:41:51.221Z,52.30
2019-04-21T08:44:27.291Z,51.60
2019-04-21T08:47:00.234Z,52.10
2019-04-21T08:49:26.550Z,51.30
2019-04-21T08:52:23.312Z,51.70
2019-04-21T08:54:32.518Z,51.50
2019-04-21T08:57:21.702Z,52.50
2019-04-21T09:00:01.587Z,51.80
2019-04-21T09:02:35.125Z,51.50
2019-04-21T09:05:11.194Z,51.50
2019-04-21T09:07:44.699Z,50.40
2019-04-21T09:10:09.380Z,49.70
2019-04-21T09:12:46.777Z,49.60
2019-04-21T09:15:13.906Z,49.30
2019-04-21T09:17:41.393Z,48.30
2019-04-21T09:20:26.402Z,49.30
2019-04-21T09:22:54.465Z,47.70
2019-04-21T09:25:30.910Z,48.10
2019-04-21T09:27:58.679Z,48.30
2019-04-21T09:30:10.911Z,47.00
2019-04-21T09:32:42.333Z,45.60
2019-04-21T09:35:15.028Z,44.80
2019-04-21T09:37:51.355Z,44.10
2019-04-21T09:40:20.471Z,44.40
2019-04-21T09:42:54.174Z,42.30
2019-04-21T09:45:17.926Z,41.80
2019-04-21T09:47:57.222Z,41.70
2019-04-21T09:50:19.841Z,41.20
2019-04-21T09:52:55.371Z,40.90
2019-04-21T09:55:24.372Z,40.60
2019-04-21T09:57:57.025Z,40.60
2019-04-21T10:00:27.210Z,40.00
2019-04-21T10:03:03.014Z,40.80
2019-04-21T10:05:27.714Z,39.60
2019-04-21T10:07:57.884Z,39.10
2019-04-21T10:10:27.653Z,38.80
2019-04-21T10:12:58.753Z,39.10
2019-04-21T10:15:33.129Z,38.70
2019-04-21T10:18:17.431Z,39.10
2019-04-21T10:20:49.099Z,38.80
2019-04-21T10:23:18.791Z,38.80
2019-04-21T10:25:48.871Z,38.90
2019-04-21T10:28:19.110Z,39.50
2019-04-21T10:30:50.854Z,40.10
2019-04-21T10:33:20.517Z,39.50
2019-04-21T10:35:55.221Z,40.00
2019-04-21T10:38:34.575Z,38.40
2019-04-21T10:40:57.054Z,38.60
2019-04-21T10:43:27.464Z,38.70
2019-04-21T10:45:58.929Z,36.70
2019-04-21T10:48:29.311Z,36.30
2019-04-21T10:51:01.123Z,36.40
2019-04-21T10:53:32.366Z,36.30
2019-04-21T10:56:12.196Z,36.80
2019-04-21T10:58:36.283Z,35.60
2019-04-21T11:01:14.228Z,36.30
2019-04-21T11:03:49.043Z,34.80
2019-04-21T11:06:21.019Z,33.80
2019-04-21T11:08:54.215Z,34.10
2019-04-21T11:11:21.939Z,34.30
2019-04-21T11:13:52.538Z,33.80
2019-04-21T11:16:23.545Z,33.80
2019-04-21T11:18:53.692Z,34.10
2019-04-21T11:21:24.824Z,34.30
2019-04-21T11:23:56.125Z,34.90
2019-04-21T11:26:26.051Z,34.50
2019-04-21T11:28:56.726Z,34.00
2019-04-21T11:31:27.222Z,34.30
2019-04-21T11:33:57.552Z,34.20
2019-04-21T11:36:27.204Z,32.90
2019-04-21T11:39:16.615Z,32.10
2019-04-21T11:41:29.804Z,32.10
2019-04-21T11:44:01.333Z,32.70
2019-04-21T11:46:30.919Z,33.00
2019-04-21T11:49:00.262Z,32.00
2019-04-21T11:51:30.945Z,30.80
2019-04-21T11:54:01.152Z,30.60
2019-04-21T11:56:30.845Z,30.00
2019-04-21T11:59:01.594Z,29.70
2019-04-21T12:01:31.884Z,29.60
2019-04-21T12:04:01.371Z,29.30
2019-04-21T12:06:37.720Z,28.80
2019-04-21T12:09:04.904Z,28.90
2019-04-21T12:11:35.698Z,28.40
2019-04-21T12:14:05.914Z,28.70
2019-04-21T12:16:35.451Z,28.40
2019-04-21T12:19:05.120Z,28.70
2019-04-21T12:21:50.696Z,28.50
2019-04-21T12:24:07.095Z,28.10
2019-04-21T12:26:37.940Z,28.30
2019-04-21T12:29:08.126Z,28.60
2019-04-21T12:31:41.271Z,27.90
2019-04-21T12:34:12.453Z,27.00
2019-04-21T12:36:43.732Z,27.90
2019-04-21T12:39:14.886Z,27.60
2019-04-21T12:41:45.071Z,26.70
2019-04-21T12:44:15.082Z,26.30
2019-04-21T12:46:45.599Z,25.90
2019-04-21T12:49:15.958Z,25.50
2019-04-21T12:51:46.181Z,26.60
2019-04-21T12:54:15.595Z,25.70
2019-04-21T12:56:45.685Z,24.90
2019-04-21T12:59:16.871Z,25.30
2019-04-21T13:01:47.006Z,23.80
2019-04-21T13:04:17.728Z,23.80
2019-04-21T13:06:47.753Z,23.80
2019-04-21T13:09:20.311Z,23.70
2019-04-21T13:11:49.479Z,23.20
2019-04-21T13:14:19.926Z,23.10
2019-04-21T13:16:49.942Z,23.70
2019-04-21T13:19:20.978Z,22.90
2019-04-21T13:21:52.044Z,23.50
2019-04-21T13:24:22.160Z,23.20
2019-04-21T13:26:57.606Z,23.50
2019-04-21T13:29:23.956Z,23.40
2019-04-21T13:31:54.293Z,23.20
2019-04-21T13:34:24.527Z,23.10
2019-04-21T13:36:54.524Z,22.80
2019-04-21T13:39:52.309Z,22.80
2019-04-21T13:42:10.968Z,22.40
2019-04-21T13:44:34.940Z,22.20
2019-04-21T13:47:05.074Z,22.10
2019-04-21T13:49:35.202Z,22.00
2019-04-21T13:52:06.647Z,21.80
2019-04-21T13:54:37.813Z,21.70
2019-04-21T13:57:08.369Z,21.40
2019-04-21T13:59:38.537Z,21.10
2019-04-21T14:02:08.942Z,20.80
2019-04-21T14:04:39.080Z,21.00
2019-04-21T14:07:10.098Z,20.50
2019-04-21T14:09:49.920Z,20.50
2019-04-21T14:12:11.891Z,20.50
2019-04-21T14:14:42.063Z,20.60
2019-04-21T14:17:12.848Z,20.40
2019-04-21T14:19:43.540Z,20.30
2019-04-21T14:22:15.928Z,20.60
2019-04-21T14:24:46.020Z,20.30
2019-04-21T14:27:16.344Z,20.50
2019-04-21T14:29:46.528Z,20.40
2019-04-21T14:32:16.522Z,20.20
2019-04-21T14:34:49.893Z,20.20
2019-04-21T14:37:18.234Z,20.20
2019-04-21T14:39:55.837Z,20.40
2019-04-21T14:42:20.272Z,20.30
2019-04-21T14:44:51.171Z,20.10
2019-04-21T14:47:31.684Z,20.30
2019-04-21T14:50:22.287Z,19.80
2019-04-21T14:53:09.915Z,19.80
2019-04-21T14:55:41.675Z,20.20
2019-04-21T14:58:12.885Z,20.10
2019-04-21T15:00:55.731Z,19.80
2019-04-21T15:03:25.890Z,19.00
2019-04-21T15:05:55.950Z,17.60
2019-04-21T15:08:28.925Z,17.10
2019-04-21T15:10:59.058Z,16.40
2019-04-21T15:13:30.032Z,15.70
2019-04-21T15:16:00.573Z,15.80
2019-04-21T15:18:30.758Z,15.80
2019-04-21T15:21:01.448Z,16.30
2019-04-21T15:23:32.443Z,16.20
2019-04-21T15:26:04.172Z,16.60
2019-04-21T15:28:36.022Z,17.60
2019-04-21T15:31:06.033Z,18.70
2019-04-21T15:33:36.996Z,19.70
2019-04-21T15:36:07.150Z,20.20
2019-04-21T15:38:38.087Z,20.30
2019-04-21T15:41:10.549Z,21.10
2019-04-21T15:43:40.565Z,21.70
2019-04-21T15:46:11.012Z,22.00
2019-04-21T15:48:41.236Z,23.00
2019-04-21T15:51:11.330Z,23.20
2019-04-21T15:53:43.860Z,23.30
2019-04-21T15:56:31.049Z,23.80
2019-04-21T15:59:04.238Z,24.00
2019-04-21T16:01:48.432Z,24.70
2019-04-21T16:04:18.841Z,24.70
2019-04-21T16:06:49.891Z,25.20
2019-04-21T16:09:22.383Z,25.30
2019-04-21T16:11:51.759Z,25.00
2019-04-21T16:14:22.767Z,25.20
2019-04-21T16:16:53.577Z,25.20
2019-04-21T16:19:23.135Z,25.50
2019-04-21T16:21:52.898Z,25.30
2019-04-21T16:24:23.331Z,25.40
2019-04-21T16:26:53.035Z,25.80
2019-04-21T16:29:22.988Z,25.60
2019-04-21T16:31:53.339Z,25.80
2019-04-21T16:34:35.397Z,26.00
2019-04-21T16:36:55.867Z,25.90
2019-04-21T16:39:27.254Z,26.00
2019-04-21T16:41:57.999Z,25.80
2019-04-21T16:44:29.409Z,26.00
2019-04-21T16:46:59.539Z,25.90
2019-04-21T16:49:29.572Z,25.80
2019-04-21T16:52:10.087Z,25.50
2019-04-21T16:54:42.055Z,25.30
2019-04-21T16:57:21.931Z,25.40
2019-04-21T16:59:53.036Z,25.80
2019-04-21T17:02:22.780Z,26.40
2019-04-21T17:04:52.340Z,27.20
2019-04-21T17:07:22.044Z,27.40
2019-04-21T17:09:52.659Z,27.60
2019-04-21T17:12:22.826Z,27.50
2019-04-21T17:15:10.704Z,27.10
2019-04-21T17:17:47.461Z,26.90
2019-04-21T17:20:11.858Z,26.90
2019-04-21T17:22:27.945Z,27.30
2019-04-21T17:24:58.243Z,27.90
2019-04-21T17:27:29.120Z,28.40
2019-04-21T17:29:59.015Z,28.20
2019-04-21T17:32:34.333Z,28.60
2019-04-21T17:35:01.839Z,28.70
2019-04-21T17:37:32.419Z,29.30
2019-04-21T17:40:05.157Z,29.40
2019-04-21T17:42:42.939Z,29.70
2019-04-21T17:45:09.226Z,29.80
2019-04-21T17:47:46.778Z,29.60
2019-04-21T17:50:20.350Z,29.80
2019-04-21T17:52:59.076Z,30.00
2019-04-21T17:55:35.063Z,30.40
2019-04-21T17:58:14.866Z,30.50
2019-04-21T18:03:40.721Z,30.70
2019-04-21T18:05:55.701Z,31.10
2019-04-21T18:08:33.399Z,31.30
2019-04-21T18:10:57.304Z,31.20
2019-04-21T18:13:18.077Z,31.40
2019-04-21T18:15:58.686Z,31.40
2019-04-21T18:18:18.715Z,32.10
2019-04-21T18:20:54.957Z,32.60
2019-04-21T18:23:46.125Z,33.00
2019-04-21T18:26:08.207Z,33.20
2019-04-21T18:28:34.661Z,33.20
2019-04-21T18:31:06.870Z,33.70
2019-04-21T18:33:40.354Z,34.20
2019-04-21T18:36:22.288Z,34.10
2019-04-21T18:39:19.780Z,34.60
2019-04-21T18:41:28.756Z,34.40
2019-04-21T18:44:44.393Z,34.40
2019-04-21T18:47:22.432Z,34.60
2019-04-21T18:49:45.933Z,35.00
2019-04-21T18:52:45.595Z,35.90
2019-04-21T18:55:12.961Z,35.90
2019-04-21T18:57:39.227Z,36.40
2019-04-21T19:00:11.597Z,35.40
2019-04-21T19:02:42.529Z,34.90
2019-04-21T19:05:11.592Z,36.00
2019-04-21T19:07:55.814Z,35.90
2019-04-21T19:10:26.872Z,35.60
2019-04-21T19:15:30.988Z,35.30
2019-04-21T19:18:28.111Z,35.70
2019-04-21T19:20:39.424Z,35.70
2019-04-21T19:22:58.990Z,35.80
2019-04-21T19:25:31.430Z,36.20
2019-04-21T19:28:03.440Z,36.10
2019-04-21T19:30:42.931Z,36.10
2019-04-21T19:33:09.162Z,36.60
2019-04-21T19:35:23.658Z,36.50
2019-04-21T19:37:59.386Z,36.70
2019-04-21T19:40:40.834Z,36.50
2019-04-21T19:43:03.592Z,36.80
2019-04-21T19:45:36.761Z,36.80
2019-04-21T19:48:13.677Z,37.10
2019-04-21T19:50:51.527Z,37.40
2019-04-21T19:53:06.415Z,37.00
2019-04-21T19:55:32.015Z,37.30
2019-04-21T19:58:03.048Z,37.20
2019-04-21T20:00:32.629Z,37.30
2019-04-21T20:03:03.043Z,37.10
2019-04-21T20:05:43.027Z,37.20
2019-04-21T20:08:20.568Z,37.40
2019-04-21T20:10:55.502Z,37.80
2019-04-21T20:13:35.132Z,37.60
2019-04-21T20:15:56.933Z,37.50
2019-04-21T20:18:22.275Z,37.60
2019-04-21T20:20:41.085Z,37.50
2019-04-21T20:23:19.237Z,37.60
2019-04-21T20:25:49.058Z,37.60
2019-04-21T20:28:30.779Z,37.80
2019-04-21T20:31:09.612Z,37.80
2019-04-21T20:36:09.724Z,38.20
2019-04-21T20:38:32.120Z,38.20
2019-04-21T20:41:01.274Z,38.40
2019-04-21T20:43:42.752Z,38.60
2019-04-21T20:46:20.694Z,38.70
2019-04-21T20:48:43.880Z,38.60
2019-04-21T20:51:11.282Z,38.70
2019-04-21T20:53:45.275Z,39.00
2019-04-21T20:56:11.149Z,39.20
2019-04-21T20:58:49.276Z,38.90
2019-04-21T21:01:30.946Z,39.30
2019-04-21T21:03:47.922Z,39.60
2019-04-21T21:06:18.662Z,39.20
2019-04-21T21:08:49.958Z,39.30
2019-04-21T21:11:26.178Z,39.60
2019-04-21T21:14:00.388Z,39.80
2019-04-21T21:16:30.795Z,39.80
2019-04-21T21:19:11.644Z,40.30
2019-04-21T21:21:30.024Z,40.60
2019-04-21T21:23:58.810Z,40.70
2019-04-21T21:26:30.833Z,40.90
2019-04-21T21:28:54.939Z,40.70
2019-04-21T21:31:40.081Z,40.60
2019-04-21T21:34:09.543Z,41.10
2019-04-21T21:36:39.813Z,40.70
2019-04-21T21:39:09.191Z,40.80
2019-04-21T21:41:27.753Z,41.30
2019-04-21T21:44:01.812Z,42.10
2019-04-21T21:46:43.033Z,42.00
2019-04-21T21:49:03.845Z,42.10
2019-04-21T21:51:40.508Z,42.20
2019-04-21T21:53:57.257Z,42.40
2019-04-21T21:56:26.848Z,42.40
2019-04-21T21:58:57.079Z,42.80
2019-04-21T22:01:35.639Z,42.90
2019-04-21T22:04:07.256Z,42.80
2019-04-21T22:06:38.688Z,42.80
2019-04-21T22:09:00.767Z,43.10
2019-04-21T22:11:31.531Z,43.40
2019-04-21T22:14:06.062Z,43.70
2019-04-21T22:16:45.519Z,43.90
2019-04-21T22:19:18.750Z,44.00
2019-04-21T22:21:53.820Z,44.20
2019-04-21T22:24:21.617Z,44.60
2019-04-21T22:26:37.053Z,44.50
2019-04-21T22:29:07.635Z,44.30
2019-04-21T22:31:40.868Z,44.90
2019-04-21T22:34:13.148Z,45.50
2019-04-21T22:36:48.801Z,45.40
2019-04-21T22:39:30.531Z,45.40
2019-04-21T22:41:46.630Z,45.50
2019-04-21T22:44:16.629Z,44.80
2019-04-21T22:46:58.594Z,44.10
2019-04-21T22:49:18.621Z,44.10
2019-04-21T22:51:51.544Z,44.20
2019-04-21T22:54:25.727Z,44.10
2019-04-21T22:56:58.552Z,44.10
2019-04-21T22:59:24.373Z,44.10
2019-04-21T23:01:54.380Z,44.10
2019-04-21T23:04:26.778Z,44.10
2019-04-21T23:06:59.920Z,44.00
2019-04-21T23:09:26.725Z,44.20
2019-04-21T23:11:57.989Z,44.20
2019-04-21T23:14:27.939Z,44.90
2019-04-21T23:17:21.223Z,45.30
2019-04-21T23:19:42.171Z,45.10
2019-04-21T23:22:16.183Z,45.30
2019-04-21T23:24:54.467Z,45.30
2019-04-21T23:27:15.622Z,45.30
2019-04-21T23:30:17.832Z,45.80
2019-04-21T23:32:20.998Z,45.90
2019-04-21T23:34:40.291Z,45.80
2019-04-21T23:37:14.306Z,46.00
2019-04-21T23:39:39.583Z,45.90
2019-04-21T23:42:09.226Z,45.90
2019-04-21T23:44:44.573Z,45.80
2019-04-21T23:47:12.138Z,45.20
2019-04-21T23:49:50.546Z,45.40
2019-04-21T23:52:15.714Z,45.30
2019-04-21T23:54:43.312Z,45.50
2019-04-21T23:57:23.197Z,45.80
2019-04-21T23:59:47.127Z,46.00
